sensor_id;sensor_type;location;lat;lon;timestamp;pressure;altitude;pressure_sealevel;temperature;humidity
46456;BME280;64052;47.466;9.094;2023-04-01T00:04:12;94730.09;;;11.41;51.62
46456;BME280;64052;47.466;9.094;2023-04-01T00:09:14;94727.78;;;11.54;51.89
46456;BME280;64052;47.466;9.094;2023-04-01T00:14:16;94729.03;;;11.00;53.05
46456;BME280;64052;47.466;9.094;2023-04-01T00:19:18;94729.09;;;11.58;52.62
46456;BME280;64052;47.466;9.094;2023-04-01T00:24:20;94737.66;;;11.85;51.73
46456;BME280;64052;47.466;9.094;2023-04-01T00:29:21;94729.59;;;11.45;53.01
46456;BME280;64052;47.466;9.094;2023-04-01T00:34:23;94721.84;;;11.69;51.40
46456;BME280;64052;47.466;9.094;2023-04-01T00:39:25;94728.41;;;11.23;52.97
46456;BME280;64052;47.466;9.094;2023-04-01T00:44:33;94739.00;;;11.64;51.60
46456;BME280;64052;47.466;9.094;2023-04-01T00:49:39;94746.09;;;11.31;52.50
46456;BME280;64052;47.466;9.094;2023-04-01T00:54:45;94740.97;;;11.54;52.18
46456;BME280;64052;47.466;9.094;2023-04-01T01:05:13;94740.81;;;11.64;52.06
46456;BME280;64052;47.466;9.094;2023-04-01T01:10:30;94739.81;;;11.90;50.87
46456;BME280;64052;47.466;9.094;2023-04-01T01:15:41;94745.28;;;11.88;51.16
46456;BME280;64052;47.466;9.094;2023-04-01T01:36:33;94752.88;;;11.50;54.17
46456;BME280;64052;47.466;9.094;2023-04-01T01:41:39;94735.84;;;11.28;53.95
46456;BME280;64052;47.466;9.094;2023-04-01T01:46:44;94737.34;;;11.38;53.09
46456;BME280;64052;47.466;9.094;2023-04-01T01:51:46;94723.91;;;10.47;54.91
46456;BME280;64052;47.466;9.094;2023-04-01T01:56:51;94718.94;;;10.18;55.68
46456;BME280;64052;47.466;9.094;2023-04-01T02:01:58;94719.84;;;10.35;54.96
46456;BME280;64052;47.466;9.094;2023-04-01T02:07:08;94716.25;;;10.36;54.85
46456;BME280;64052;47.466;9.094;2023-04-01T02:17:20;94706.63;;;10.53;54.10
46456;BME280;64052;47.466;9.094;2023-04-01T02:22:34;94704.66;;;10.55;54.20
46456;BME280;64052;47.466;9.094;2023-04-01T02:27:38;94693.31;;;10.54;53.38
46456;BME280;64052;47.466;9.094;2023-04-01T02:32:41;94715.81;;;10.14;54.90
46456;BME280;64052;47.466;9.094;2023-04-01T02:37:44;94691.16;;;10.23;53.64
46456;BME280;64052;47.466;9.094;2023-04-01T02:42:47;94699.44;;;10.29;53.55
46456;BME280;64052;47.466;9.094;2023-04-01T02:47:50;94687.25;;;10.36;53.51
46456;BME280;64052;47.466;9.094;2023-04-01T02:52:51;94680.53;;;10.33;53.10
46456;BME280;64052;47.466;9.094;2023-04-01T02:57:53;94689.53;;;10.57;52.18
46456;BME280;64052;47.466;9.094;2023-04-01T03:02:55;94687.72;;;10.58;51.05
46456;BME280;64052;47.466;9.094;2023-04-01T03:07:57;94689.53;;;10.57;51.70
46456;BME280;64052;47.466;9.094;2023-04-01T03:12:59;94685.69;;;10.43;51.72
46456;BME280;64052;47.466;9.094;2023-04-01T03:18:01;94693.97;;;10.57;51.21
46456;BME280;64052;47.466;9.094;2023-04-01T03:23:03;94696.59;;;10.57;51.85
46456;BME280;64052;47.466;9.094;2023-04-01T03:28:04;94692.84;;;10.67;51.82
46456;BME280;64052;47.466;9.094;2023-04-01T03:33:06;94691.38;;;10.65;52.21
46456;BME280;64052;47.466;9.094;2023-04-01T03:38:08;94688.34;;;10.51;52.50
46456;BME280;64052;47.466;9.094;2023-04-01T03:43:10;94701.34;;;10.53;51.88
46456;BME280;64052;47.466;9.094;2023-04-01T03:48:14;94697.06;;;10.44;51.20
46456;BME280;64052;47.466;9.094;2023-04-01T03:53:16;94688.34;;;10.51;50.71
46456;BME280;64052;47.466;9.094;2023-04-01T03:58:20;94688.84;;;10.55;50.72
46456;BME280;64052;47.466;9.094;2023-04-01T04:03:22;94676.91;;;10.77;49.82
46456;BME280;64052;47.466;9.094;2023-04-01T04:08:24;94680.72;;;10.83;49.72
46456;BME280;64052;47.466;9.094;2023-04-01T04:13:26;94671.97;;;10.74;49.21
46456;BME280;64052;47.466;9.094;2023-04-01T04:18:34;94679.88;;;10.82;48.66
46456;BME280;64052;47.466;9.094;2023-04-01T04:23:35;94692.09;;;11.08;48.29
46456;BME280;64052;47.466;9.094;2023-04-01T04:28:37;94699.28;;;10.73;49.31
46456;BME280;64052;47.466;9.094;2023-04-01T04:33:39;94706.06;;;10.76;49.80
46456;BME280;64052;47.466;9.094;2023-04-01T04:38:41;94727.91;;;10.60;51.46
46456;BME280;64052;47.466;9.094;2023-04-01T04:43:55;94714.72;;;10.51;53.11
46456;BME280;64052;47.466;9.094;2023-04-01T04:48:58;94701.41;;;10.61;52.67
46456;BME280;64052;47.466;9.094;2023-04-01T04:54:00;94704.38;;;10.66;53.61
46456;BME280;64052;47.466;9.094;2023-04-01T04:59:15;94711.28;;;10.59;52.95
46456;BME280;64052;47.466;9.094;2023-04-01T05:04:24;94715.28;;;10.72;52.56
46456;BME280;64052;47.466;9.094;2023-04-01T05:09:26;94724.88;;;10.81;51.97
46456;BME280;64052;47.466;9.094;2023-04-01T05:14:27;94722.16;;;10.56;51.70
46456;BME280;64052;47.466;9.094;2023-04-01T05:19:37;94733.97;;;10.52;52.28
46456;BME280;64052;47.466;9.094;2023-04-01T05:24:39;94740.94;;;10.35;53.45
46456;BME280;64052;47.466;9.094;2023-04-01T05:29:41;94743.84;;;10.23;54.28
46456;BME280;64052;47.466;9.094;2023-04-01T05:34:57;94731.97;;;10.19;54.87
46456;BME280;64052;47.466;9.094;2023-04-01T05:39:58;94746.47;;;10.93;54.06
46456;BME280;64052;47.466;9.094;2023-04-01T05:45:00;94741.25;;;10.32;54.43
46456;BME280;64052;47.466;9.094;2023-04-01T05:50:20;94731.56;;;10.32;54.37
46456;BME280;64052;47.466;9.094;2023-04-01T05:55:22;94746.72;;;10.12;55.42
46456;BME280;64052;47.466;9.094;2023-04-01T06:00:25;94747.31;;;10.24;55.29
46456;BME280;64052;47.466;9.094;2023-04-01T06:05:38;94764.66;;;10.35;55.10
46456;BME280;64052;47.466;9.094;2023-04-01T06:10:44;94764.56;;;10.18;56.99
46456;BME280;64052;47.466;9.094;2023-04-01T06:16:12;94756.41;;;10.30;56.28
46456;BME280;64052;47.466;9.094;2023-04-01T06:37:27;94748.59;;;10.89;54.91
46456;BME280;64052;47.466;9.094;2023-04-01T06:54:13;94740.63;;;11.24;53.34
46456;BME280;64052;47.466;9.094;2023-04-01T06:59:37;94733.19;;;11.19;53.93
46456;BME280;64052;47.466;9.094;2023-04-01T07:04:46;94727.75;;;11.29;53.66
46456;BME280;64052;47.466;9.094;2023-04-01T07:09:52;94723.47;;;11.45;53.56
46456;BME280;64052;47.466;9.094;2023-04-01T07:15:56;94743.97;;;11.51;52.20
46456;BME280;64052;47.466;9.094;2023-04-01T07:20:36;94733.88;;;11.63;51.05
46456;BME280;64052;47.466;9.094;2023-04-01T07:25:46;94725.78;;;11.81;51.92
46456;BME280;64052;47.466;9.094;2023-04-01T07:31:15;94721.81;;;11.85;51.17
46456;BME280;64052;47.466;9.094;2023-04-01T07:36:30;94726.44;;;12.08;49.77
46456;BME280;64052;47.466;9.094;2023-04-01T07:41:51;94731.72;;;12.16;48.75
46456;BME280;64052;47.466;9.094;2023-04-01T07:47:14;94738.84;;;12.07;49.23
46456;BME280;64052;47.466;9.094;2023-04-01T08:14:21;94760.09;;;11.31;54.75
46456;BME280;64052;47.466;9.094;2023-04-01T08:19:30;94753.97;;;11.22;53.93
46456;BME280;64052;47.466;9.094;2023-04-01T08:24:41;94748.22;;;11.35;54.95
46456;BME280;64052;47.466;9.094;2023-04-01T08:30:16;94761.44;;;11.52;54.47
46456;BME280;64052;47.466;9.094;2023-04-01T08:35:40;94745.94;;;11.49;55.42
46456;BME280;64052;47.466;9.094;2023-04-01T08:41:20;94744.59;;;11.28;55.07
46456;BME280;64052;47.466;9.094;2023-04-01T08:47:16;94749.03;;;11.19;55.77
46456;BME280;64052;47.466;9.094;2023-04-01T08:52:35;94755.13;;;11.20;56.33
46456;BME280;64052;47.466;9.094;2023-04-01T09:09:37;94770.44;;;11.08;56.18
46456;BME280;64052;47.466;9.094;2023-04-01T09:25:45;94773.84;;;10.92;58.65
46456;BME280;64052;47.466;9.094;2023-04-01T09:31:24;94778.19;;;10.66;58.26
46456;BME280;64052;47.466;9.094;2023-04-01T09:42:29;94787.19;;;10.90;60.64
46456;BME280;64052;47.466;9.094;2023-04-01T09:53:22;94788.63;;;10.76;61.53
46456;BME280;64052;47.466;9.094;2023-04-01T10:09:48;94791.31;;;10.93;60.67
46456;BME280;64052;47.466;9.094;2023-04-01T10:20:46;94773.94;;;11.33;59.14
46456;BME280;64052;47.466;9.094;2023-04-01T10:36:51;94767.53;;;11.77;57.77
46456;BME280;64052;47.466;9.094;2023-04-01T10:54:13;94772.66;;;11.95;56.11
46456;BME280;64052;47.466;9.094;2023-04-01T11:33:28;94769.13;;;12.53;54.45
46456;BME280;64052;47.466;9.094;2023-04-01T11:44:22;94747.78;;;13.34;50.42
46456;BME280;64052;47.466;9.094;2023-04-01T11:50:03;94749.44;;;13.59;48.62
46456;BME280;64052;47.466;9.094;2023-04-01T12:06:16;94762.41;;;13.22;50.30
46456;BME280;64052;47.466;9.094;2023-04-01T12:27:42;94787.38;;;13.19;49.03
46456;BME280;64052;47.466;9.094;2023-04-01T12:33:03;94786.00;;;12.92;50.40
46456;BME280;64052;47.466;9.094;2023-04-01T12:43:52;94782.03;;;12.96;49.56
46456;BME280;64052;47.466;9.094;2023-04-01T13:00:30;94756.34;;;13.37;47.93
46456;BME280;64052;47.466;9.094;2023-04-01T13:15:58;94793.16;;;12.27;55.69
46456;BME280;64052;47.466;9.094;2023-04-01T13:21:20;94781.22;;;12.47;56.97
46456;BME280;64052;47.466;9.094;2023-04-01T13:26:40;94781.81;;;12.66;55.54
46456;BME280;64052;47.466;9.094;2023-04-01T13:42:34;94755.50;;;13.13;50.27
46456;BME280;64052;47.466;9.094;2023-04-01T14:09:50;94756.88;;;13.32;48.18
46456;BME280;64052;47.466;9.094;2023-04-01T14:20:36;94758.25;;;13.28;45.65
46456;BME280;64052;47.466;9.094;2023-04-01T14:26:00;94737.38;;;13.56;46.41
46456;BME280;64052;47.466;9.094;2023-04-01T14:47:34;94763.69;;;13.58;45.29
46456;BME280;64052;47.466;9.094;2023-04-01T14:52:47;94770.22;;;13.70;46.71
46456;BME280;64052;47.466;9.094;2023-04-01T15:14:00;94829.81;;;13.03;49.64
46456;BME280;64052;47.466;9.094;2023-04-01T15:40:47;94819.88;;;12.48;57.48
46456;BME280;64052;47.466;9.094;2023-04-01T16:02:21;94809.34;;;12.15;58.27
46456;BME280;64052;47.466;9.094;2023-04-01T16:07:43;94799.94;;;12.21;58.40
46456;BME280;64052;47.466;9.094;2023-04-01T16:13:03;94801.81;;;12.60;58.07
46456;BME280;64052;47.466;9.094;2023-04-01T16:18:23;94804.59;;;12.75;57.26
46456;BME280;64052;47.466;9.094;2023-04-01T16:23:38;94806.22;;;12.85;56.90
46456;BME280;64052;47.466;9.094;2023-04-01T16:29:35;94805.88;;;12.88;55.04
46456;BME280;64052;47.466;9.094;2023-04-01T16:34:45;94803.13;;;12.64;54.33
46456;BME280;64052;47.466;9.094;2023-04-01T16:39:59;94802.78;;;12.76;54.93
46456;BME280;64052;47.466;9.094;2023-04-01T16:50:53;94811.22;;;12.71;54.25
46456;BME280;64052;47.466;9.094;2023-04-01T16:56:11;94804.91;;;12.81;54.99
46456;BME280;64052;47.466;9.094;2023-04-01T17:02:08;94808.91;;;12.76;54.49
46456;BME280;64052;47.466;9.094;2023-04-01T17:06:49;94818.13;;;12.81;54.56
46456;BME280;64052;47.466;9.094;2023-04-01T17:22:51;94835.91;;;12.47;56.38
46456;BME280;64052;47.466;9.094;2023-04-01T17:38:34;94863.16;;;11.98;58.06
46456;BME280;64052;47.466;9.094;2023-04-01T17:43:57;94865.94;;;11.88;59.07
46456;BME280;64052;47.466;9.094;2023-04-01T17:49:30;94856.53;;;11.77;58.50
46456;BME280;64052;47.466;9.094;2023-04-01T17:54:42;94853.56;;;11.88;57.59
46456;BME280;64052;47.466;9.094;2023-04-01T18:00:06;94857.22;;;12.04;57.51
46456;BME280;64052;47.466;9.094;2023-04-01T18:37:24;94878.66;;;12.01;56.11
46456;BME280;64052;47.466;9.094;2023-04-01T18:58:43;94894.38;;;12.11;54.93
46456;BME280;64052;47.466;9.094;2023-04-01T19:04:05;94906.94;;;12.08;54.57
46456;BME280;64052;47.466;9.094;2023-04-01T19:09:26;94908.41;;;12.03;55.22
46456;BME280;64052;47.466;9.094;2023-04-01T19:30:56;94924.63;;;12.33;54.04
46456;BME280;64052;47.466;9.094;2023-04-01T19:36:13;94935.84;;;12.27;53.70
46456;BME280;64052;47.466;9.094;2023-04-01T19:46:37;94945.13;;;12.39;53.43
46456;BME280;64052;47.466;9.094;2023-04-01T19:51:43;94949.88;;;12.27;53.29
46456;BME280;64052;47.466;9.094;2023-04-01T19:57:09;94949.06;;;12.18;54.11
46456;BME280;64052;47.466;9.094;2023-04-01T20:07:57;94952.03;;;12.15;54.19
46456;BME280;64052;47.466;9.094;2023-04-01T20:13:13;94956.56;;;11.88;55.36
46456;BME280;64052;47.466;9.094;2023-04-01T20:18:41;94960.78;;;11.73;55.21
46456;BME280;64052;47.466;9.094;2023-04-01T20:23:59;94955.50;;;11.73;54.17
46456;BME280;64052;47.466;9.094;2023-04-01T20:34:58;94968.78;;;11.89;54.38
46456;BME280;64052;47.466;9.094;2023-04-01T20:45:38;94960.50;;;11.76;53.98
46456;BME280;64052;47.466;9.094;2023-04-01T20:50:59;94966.06;;;11.73;54.68
46456;BME280;64052;47.466;9.094;2023-04-01T21:07:00;94983.28;;;11.77;55.56
46456;BME280;64052;47.466;9.094;2023-04-01T21:39:31;95009.41;;;11.53;56.02
46456;BME280;64052;47.466;9.094;2023-04-01T21:50:46;95015.56;;;11.62;55.60
46456;BME280;64052;47.466;9.094;2023-04-01T22:07:00;95027.94;;;11.35;55.28
46456;BME280;64052;47.466;9.094;2023-04-01T22:12:10;95024.06;;;11.48;54.84
46456;BME280;64052;47.466;9.094;2023-04-01T22:22:22;95029.44;;;11.64;54.46
46456;BME280;64052;47.466;9.094;2023-04-01T22:27:45;95026.81;;;11.73;53.72
46456;BME280;64052;47.466;9.094;2023-04-01T22:38:12;95041.28;;;11.60;52.76
46456;BME280;64052;47.466;9.094;2023-04-01T22:48:38;95059.94;;;11.59;53.38
46456;BME280;64052;47.466;9.094;2023-04-01T23:04:24;95058.63;;;11.63;52.39
46456;BME280;64052;47.466;9.094;2023-04-01T23:09:28;95051.88;;;11.69;51.87
46456;BME280;64052;47.466;9.094;2023-04-01T23:14:35;95058.88;;;11.78;52.02
46456;BME280;64052;47.466;9.094;2023-04-01T23:25:30;95067.13;;;11.75;52.74
46456;BME280;64052;47.466;9.094;2023-04-01T23:40:52;95070.03;;;11.63;52.96
46456;BME280;64052;47.466;9.094;2023-04-01T23:45:55;95077.56;;;11.58;52.80
46456;BME280;64052;47.466;9.094;2023-04-01T23:50:57;95084.94;;;11.46;53.04
46456;BME280;64052;47.466;9.094;2023-04-01T23:56:02;95088.84;;;11.69;52.44
